createdAt,value
2023-04-27T00:01:29.032Z,4.4
2023-04-27T00:21:33.794Z,3.8
2023-04-27T00:31:35.865Z,3.7
2023-04-27T00:41:37.742Z,3.5
2023-04-27T00:51:39.566Z,3.5
2023-04-27T01:01:41.543Z,3.2
2023-04-27T01:11:43.584Z,3
2023-04-27T01:21:46.265Z,3.1
2023-04-27T01:31:48.751Z,3.1
2023-04-27T01:41:50.475Z,3.1
2023-04-27T01:51:53.212Z,3.2
2023-04-27T02:01:55.660Z,3
2023-04-27T02:11:57.522Z,3
2023-04-27T02:21:59.975Z,2.8
2023-04-27T02:32:02.271Z,2.7
2023-04-27T02:42:04.797Z,2.6
2023-04-27T02:52:06.573Z,2.5
2023-04-27T03:02:09.191Z,2.5
2023-04-27T03:12:11.084Z,2.2
2023-04-27T03:22:13.247Z,2.2
2023-04-27T03:32:15.925Z,2.1
2023-04-27T03:42:18.375Z,2.1
2023-04-27T03:52:20.449Z,2.1
2023-04-27T04:12:24.694Z,2
2023-04-27T04:22:27.206Z,1.9
2023-04-27T04:32:29.400Z,1.8
2023-04-27T04:42:31.623Z,1.7
2023-04-27T05:02:36.181Z,1.7
2023-04-27T05:12:37.923Z,1.8
2023-04-27T05:22:40.361Z,2
2023-04-27T05:32:42.366Z,2.3
2023-04-27T05:42:44.214Z,2.5
2023-04-27T06:02:57.842Z,3.4
2023-04-27T06:23:02.799Z,4.6
2023-04-27T06:43:07.633Z,5.4
2023-04-27T07:03:12.404Z,5.7
2023-04-27T07:13:14.548Z,6.3
2023-04-27T07:23:16.772Z,6.5
2023-04-27T07:33:19.294Z,6.7
2023-04-27T07:43:21.352Z,7
2023-04-27T07:53:23.164Z,7.2
2023-04-27T08:03:26.019Z,7.4
2023-04-27T08:13:28.475Z,7.4
2023-04-27T08:23:30.196Z,8
2023-04-27T08:33:32.156Z,8.3
2023-04-27T08:43:34.651Z,8.3
2023-04-27T08:53:37.348Z,8.5
2023-04-27T09:03:40.068Z,8.6
2023-04-27T09:13:42.174Z,8.9
2023-04-27T09:23:44.175Z,8.9
2023-04-27T09:33:46.489Z,9.6
2023-04-27T09:53:50.982Z,9.5
2023-04-27T10:03:53.706Z,9.7
2023-04-27T10:13:55.322Z,10.1
2023-04-27T10:23:57.562Z,10
2023-04-27T10:33:59.655Z,10.4
2023-04-27T10:44:01.561Z,10.2
2023-04-27T10:54:03.456Z,10.2
2023-04-27T11:04:05.196Z,10.2
2023-04-27T11:14:07.726Z,10.5
2023-04-27T11:24:09.832Z,10.8
2023-04-27T11:34:13.735Z,10.5
2023-04-27T11:44:14.816Z,11.1
2023-04-27T11:54:16.857Z,11.3
2023-04-27T12:04:20.053Z,11.8
2023-04-27T12:14:21.853Z,11
2023-04-27T12:24:23.790Z,11.5
2023-04-27T12:34:25.675Z,11.9
2023-04-27T12:44:28.180Z,11.7
2023-04-27T12:54:30.687Z,11.8
2023-04-27T13:04:32.615Z,11.7
2023-04-27T13:14:34.392Z,11.6
2023-04-27T13:24:36.935Z,12.1
2023-04-27T13:44:41.445Z,12.2
2023-04-27T13:54:43.580Z,12.2
2023-04-27T14:04:45.857Z,12.1
2023-04-27T14:14:48.393Z,12.9
2023-04-27T14:24:50.261Z,12.9
2023-04-27T14:34:52.027Z,12.8
2023-04-27T14:54:56.108Z,12.5
2023-04-27T15:04:58.853Z,12.5
2023-04-27T15:15:01.077Z,12.4
2023-04-27T15:35:05.683Z,12.5
2023-04-27T15:45:09.921Z,12.3
2023-04-27T15:55:09.924Z,12.3
2023-04-27T16:05:12.021Z,12.4
2023-04-27T16:15:14.344Z,12.1
2023-04-27T16:25:16.187Z,12.1
2023-04-27T16:35:18.332Z,11.9
2023-04-27T16:45:20.379Z,12
2023-04-27T16:55:22.308Z,11.8
2023-04-27T17:05:24.122Z,11.9
2023-04-27T17:15:26.218Z,11.9
2023-04-27T17:25:28.399Z,11.7
2023-04-27T17:35:30.960Z,11.6
2023-04-27T17:45:33.475Z,11.4
2023-04-27T17:55:35.598Z,11.3
2023-04-27T18:05:37.782Z,11.2
2023-04-27T18:15:39.490Z,11.1
2023-04-27T18:25:42.081Z,11
2023-04-27T18:35:44.318Z,10.9
2023-04-27T18:45:46.289Z,10.9
2023-04-27T18:55:48.370Z,10.7
2023-04-27T19:05:50.772Z,10.6
2023-04-27T19:15:52.801Z,10.5
2023-04-27T19:25:57.485Z,10.5
2023-04-27T19:35:57.335Z,10.4
2023-04-27T19:45:59.752Z,10.3
2023-04-27T19:56:01.914Z,10.2
2023-04-27T20:06:03.936Z,10.1
2023-04-27T20:16:06.135Z,10
2023-04-27T20:26:08.223Z,9.9
2023-04-27T20:36:16.920Z,9.8
2023-04-27T20:46:12.388Z,9.8
2023-04-27T20:56:14.748Z,9.7
2023-04-27T21:06:17.249Z,9.5
2023-04-27T21:16:19.575Z,9.5
2023-04-27T21:26:21.459Z,9.4
2023-04-27T21:36:23.932Z,9.3
2023-04-27T21:46:26.026Z,9.2
2023-04-27T21:56:27.929Z,9
2023-04-27T22:06:30.086Z,8.9
2023-04-27T22:16:31.865Z,8.8
2023-04-27T22:26:33.902Z,8.7
2023-04-27T22:36:36.685Z,8.6
2023-04-27T22:46:38.625Z,8.6
2023-04-27T22:56:40.526Z,8.5
2023-04-27T23:06:43.074Z,8.5
2023-04-27T23:16:45.751Z,8.4
2023-04-27T23:26:47.373Z,8.5
2023-04-27T23:36:49.446Z,8.4
2023-04-27T23:46:52.017Z,8.4
2023-04-27T23:56:54.357Z,8.4
